高雄國際航空站 - 塔台/地面席

METAR RCKH 250100Z 02003KT 340V060 6000 FEW015 SCT040 26/21 Q1015 NOSIG RMK A2998=

站台狀態:Offline
最後更新:2021-10-25 09:30:02